Time;durP1;ratioP1;P1;durP2;ratioP2;P2;SDS_P1;SDS_P2;PMS_P1;PMS_P2;Temp;Humidity;BMP_temperature;BMP_pressure;BME280_temperature;BME280_humidity;BME280_pressure;Samples;Min_cycle;Max_cycle;Signal;HPM_P1;HPM_P2
2022/02/13 00:00:15;;;;;;;18.05;8.45;;;-0.30;99.90;;;;;;5093623;28;20056;-68
2022/02/13 00:02:42;;;;;;;16.08;8.52;;;-0.30;99.90;;;;;;5093426;28;20066;-67
2022/02/13 00:05:09;;;;;;;17.63;8.77;;;-0.30;99.90;;;;;;5092257;28;20081;-67
2022/02/13 00:07:35;;;;;;;16.00;7.85;;;-0.40;99.90;;;;;;5091186;28;20028;-67
2022/02/13 00:10:03;;;;;;;14.20;7.57;;;-0.40;99.90;;;;;;5092865;28;20047;-68
2022/02/13 00:12:29;;;;;;;14.95;7.97;;;-0.40;99.90;;;;;;5091730;28;20429;-68
2022/02/13 00:14:54;;;;;;;14.38;7.80;;;-0.50;99.90;;;;;;5093018;28;20127;-68
2022/02/13 00:17:21;;;;;;;14.68;7.72;;;-0.50;99.90;;;;;;5091415;28;20442;-67
2022/02/13 00:19:46;;;;;;;13.93;7.60;;;-0.60;99.90;;;;;;5092493;28;20028;-67
2022/02/13 00:22:13;;;;;;;15.20;8.32;;;-0.60;99.90;;;;;;5087991;28;20086;-68
2022/02/13 00:24:39;;;;;;;12.65;7.78;;;-0.70;99.90;;;;;;5088475;28;20081;-68
2022/02/13 00:27:04;;;;;;;14.73;7.70;;;-0.70;99.90;;;;;;5090163;28;20023;-67
2022/02/13 00:29:30;;;;;;;13.32;7.38;;;-0.70;99.90;;;;;;5092981;28;20029;-68
2022/02/13 00:31:56;;;;;;;13.93;7.38;;;-0.70;99.90;;;;;;5091070;28;20080;-68
2022/02/13 00:34:21;;;;;;;11.98;7.03;;;-0.70;99.90;;;;;;5092812;28;20020;-67
2022/02/13 00:36:47;;;;;;;14.85;7.72;;;-0.70;99.90;;;;;;5092227;28;20024;-67
2022/02/13 00:39:13;;;;;;;16.10;8.13;;;-0.70;99.90;;;;;;5091840;28;20016;-68
2022/02/13 00:41:38;;;;;;;12.70;7.78;;;-0.60;99.90;;;;;;5074038;28;20103;-68
2022/02/13 00:44:04;;;;;;;11.88;6.93;;;-0.70;99.90;;;;;;5093019;28;20032;-69
2022/02/13 00:46:30;;;;;;;17.63;7.50;;;-0.70;99.90;;;;;;5090869;28;20082;-67
2022/02/13 00:48:56;;;;;;;13.60;7.78;;;-0.60;99.90;;;;;;5091002;28;20166;-68
2022/02/13 00:51:22;;;;;;;13.68;6.85;;;-0.60;99.90;;;;;;5069708;28;20054;-67
2022/02/13 00:53:47;;;;;;;15.80;7.15;;;-0.60;99.90;;;;;;5092694;28;20024;-68
2022/02/13 00:56:13;;;;;;;13.90;7.13;;;-0.60;99.90;;;;;;5091451;28;20024;-68
2022/02/13 00:58:40;;;;;;;14.40;7.30;;;-0.60;99.90;;;;;;5090033;28;20036;-68
2022/02/13 01:01:07;;;;;;;12.77;7.70;;;-0.70;99.90;;;;;;5092289;28;20028;-67
2022/02/13 01:03:33;;;;;;;13.02;6.90;;;-0.70;99.90;;;;;;5091964;28;20051;-67
2022/02/13 01:06:00;;;;;;;10.98;7.47;;;-0.70;99.90;;;;;;5090759;28;20461;-69
2022/02/13 01:08:26;;;;;;;15.00;7.70;;;-0.70;99.90;;;;;;5090498;28;20016;-67
2022/02/13 01:10:52;;;;;;;12.70;7.15;;;-0.70;99.90;;;;;;5090633;28;20040;-68
2022/02/13 01:13:19;;;;;;;15.07;7.22;;;-0.70;99.90;;;;;;5092645;28;20543;-67
2022/02/13 01:15:44;;;;;;;13.18;7.50;;;-0.80;99.90;;;;;;5091594;28;20103;-67
2022/02/13 01:18:11;;;;;;;13.77;7.93;;;-0.80;99.90;;;;;;5090747;28;20099;-69
2022/02/13 01:20:36;;;;;;;13.38;6.60;;;-0.80;99.90;;;;;;5090571;28;20052;-68
2022/02/13 01:23:02;;;;;;;11.45;7.00;;;-0.90;99.90;;;;;;5087823;28;20071;-67
2022/02/13 01:25:28;;;;;;;13.90;6.72;;;-0.90;99.90;;;;;;5090907;28;20067;-67
2022/02/13 01:27:53;;;;;;;10.45;6.93;;;-1.00;99.90;;;;;;5091062;28;20037;-69
2022/02/13 01:30:19;;;;;;;13.50;7.55;;;-1.00;99.90;;;;;;5091097;28;20107;-67
2022/02/13 01:32:44;;;;;;;11.55;6.70;;;-1.00;99.90;;;;;;5092327;28;20070;-70
2022/02/13 01:35:10;;;;;;;13.73;7.32;;;-1.00;99.90;;;;;;5090777;28;20580;-68
2022/02/13 01:37:36;;;;;;;11.25;7.13;;;-1.00;99.90;;;;;;5090748;28;20031;-70
2022/02/13 01:40:03;;;;;;;12.70;7.30;;;-1.00;99.90;;;;;;5091800;28;20028;-68
2022/02/13 01:42:28;;;;;;;11.90;7.00;;;-0.90;99.90;;;;;;5091261;28;20499;-68
2022/02/13 01:44:55;;;;;;;12.68;6.88;;;-0.90;99.90;;;;;;5091283;28;20036;-69
2022/02/13 01:47:22;;;;;;;10.38;6.65;;;-0.90;99.90;;;;;;5089917;28;20043;-67
2022/02/13 01:49:48;;;;;;;11.50;6.63;;;-0.90;99.90;;;;;;5082636;28;20035;-67
2022/02/13 01:52:14;;;;;;;9.07;6.35;;;-0.90;99.90;;;;;;5088853;28;20027;-67
2022/02/13 01:54:41;;;;;;;9.30;5.85;;;-0.90;99.90;;;;;;5087443;28;20065;-69
2022/02/13 01:57:10;;;;;;;11.25;6.30;;;-0.90;99.90;;;;;;5089739;28;20047;-68
2022/02/13 01:59:36;;;;;;;11.73;5.93;;;-1.00;99.90;;;;;;5091073;28;20016;-67
2022/02/13 02:02:02;;;;;;;11.02;5.90;;;-0.90;99.90;;;;;;5091046;28;20040;-67
2022/02/13 02:04:28;;;;;;;9.27;5.78;;;-0.90;99.90;;;;;;5091119;28;20024;-67
2022/02/13 02:06:54;;;;;;;9.60;5.70;;;-0.90;99.90;;;;;;5088969;28;20147;-71
2022/02/13 02:09:24;;;;;;;11.13;6.22;;;-0.90;99.90;;;;;;5088296;28;20509;-67
2022/02/13 02:11:49;;;;;;;10.57;5.80;;;-1.00;99.90;;;;;;5090367;28;20032;-67
2022/02/13 02:14:15;;;;;;;11.13;5.32;;;-1.00;99.90;;;;;;5089965;28;20026;-68
2022/02/13 02:16:42;;;;;;;9.38;5.93;;;-1.00;99.90;;;;;;5091205;28;20032;-71
2022/02/13 02:19:10;;;;;;;12.02;6.22;;;-1.00;99.90;;;;;;5089578;28;20031;-67
2022/02/13 02:21:37;;;;;;;11.45;5.70;;;-1.00;99.90;;;;;;5082970;28;20424;-67
2022/02/13 02:24:03;;;;;;;9.10;5.65;;;-1.00;99.90;;;;;;5090316;28;20051;-70
2022/02/13 02:26:28;;;;;;;11.82;6.45;;;-1.00;99.90;;;;;;5089923;28;20420;-68
2022/02/13 02:28:54;;;;;;;9.77;5.80;;;-1.00;99.90;;;;;;5087990;28;20043;-68
2022/02/13 02:31:19;;;;;;;11.18;6.07;;;-1.00;99.90;;;;;;5090894;28;20039;-68
2022/02/13 02:33:45;;;;;;;13.90;6.40;;;-1.00;99.90;;;;;;5089730;28;20016;-70
2022/02/13 02:36:19;;;;;;;13.43;6.50;;;-1.00;99.90;;;;;;5089994;28;20509;-69
2022/02/13 02:38:45;;;;;;;13.40;6.80;;;-0.90;99.90;;;;;;5089560;28;20032;-69
2022/02/13 02:41:12;;;;;;;9.45;6.00;;;-0.90;99.90;;;;;;5090371;28;20376;-69
2022/02/13 02:43:37;;;;;;;11.93;6.40;;;-0.90;99.90;;;;;;5071837;28;20562;-71
2022/02/13 02:46:03;;;;;;;13.30;6.75;;;-0.90;99.90;;;;;;5090218;28;20115;-69
2022/02/13 02:48:29;;;;;;;8.77;5.95;;;-0.90;99.90;;;;;;5089002;28;20058;-69
2022/02/13 02:50:55;;;;;;;10.90;6.03;;;-0.90;99.90;;;;;;5089458;28;20024;-68
2022/02/13 02:53:21;;;;;;;12.82;6.25;;;-0.90;99.90;;;;;;5089111;28;20310;-70
2022/02/13 02:55:46;;;;;;;10.65;6.00;;;-0.90;99.90;;;;;;5090481;28;20023;-69
2022/02/13 02:58:12;;;;;;;9.65;5.75;;;-0.90;99.90;;;;;;5087318;28;20085;-71
2022/02/13 03:00:38;;;;;;;9.45;5.93;;;-0.90;99.90;;;;;;5089890;28;20039;-67
2022/02/13 03:03:04;;;;;;;13.40;5.68;;;-0.90;99.90;;;;;;5089402;28;20043;-69
2022/02/13 03:05:29;;;;;;;8.93;5.60;;;-0.90;99.90;;;;;;5089985;28;20038;-69
2022/02/13 03:07:55;;;;;;;10.30;6.25;;;-1.00;99.90;;;;;;5087225;28;20450;-68
2022/02/13 03:10:21;;;;;;;11.20;5.80;;;-1.00;99.90;;;;;;5089415;28;20040;-68
2022/02/13 03:12:46;;;;;;;9.13;5.95;;;-1.00;99.90;;;;;;5089191;28;20073;-69
2022/02/13 03:15:12;;;;;;;9.63;6.32;;;-1.00;99.90;;;;;;5089268;28;20107;-68
2022/02/13 03:17:37;;;;;;;10.65;6.40;;;-1.10;99.90;;;;;;5088079;28;20012;-67
2022/02/13 03:20:03;;;;;;;14.38;7.00;;;-1.10;99.90;;;;;;5090030;28;20107;-69
2022/02/13 03:22:29;;;;;;;12.50;7.07;;;-1.10;99.90;;;;;;5087709;28;20144;-69
2022/02/13 03:24:58;;;;;;;9.48;6.03;;;-1.10;99.90;;;;;;5072776;28;20456;-68
2022/02/13 03:27:25;;;;;;;9.27;6.32;;;-1.10;99.90;;;;;;5087969;28;20115;-68
2022/02/13 03:29:50;;;;;;;9.60;6.32;;;-1.10;99.90;;;;;;5084099;28;20036;-68
2022/02/13 03:32:16;;;;;;;9.02;5.80;;;-1.20;99.90;;;;;;5088638;28;20073;-68
2022/02/13 03:34:41;;;;;;;14.10;6.20;;;-1.20;99.90;;;;;;5089737;28;20058;-68
2022/02/13 03:37:07;;;;;;;9.30;6.63;;;-1.20;99.90;;;;;;5087515;28;20532;-70
2022/02/13 03:39:33;;;;;;;10.93;6.32;;;-1.20;99.90;;;;;;5089642;28;20028;-68
2022/02/13 03:41:59;;;;;;;9.63;6.03;;;-1.20;99.90;;;;;;5070018;28;20108;-70
2022/02/13 03:44:25;;;;;;;13.48;6.00;;;-1.20;99.90;;;;;;5089439;28;20038;-68
2022/02/13 03:46:50;;;;;;;10.43;6.18;;;-1.20;99.90;;;;;;5089270;28;20060;-69
2022/02/13 03:49:16;;;;;;;10.30;6.15;;;-1.20;99.90;;;;;;5088376;28;20032;-68
2022/02/13 03:51:42;;;;;;;8.18;5.75;;;-1.20;99.90;;;;;;5088460;28;20032;-69
2022/02/13 03:54:08;;;;;;;9.00;6.03;;;-1.30;99.90;;;;;;5088417;28;20372;-70
2022/02/13 03:56:33;;;;;;;8.80;6.03;;;-1.30;99.90;;;;;;5070151;28;20020;-70
2022/02/13 03:58:59;;;;;;;11.05;5.32;;;-1.30;99.90;;;;;;5087826;28;20028;-69
2022/02/13 04:01:24;;;;;;;7.38;5.20;;;-1.30;99.90;;;;;;5082441;28;20059;-68
2022/02/13 04:03:50;;;;;;;10.93;5.25;;;-1.40;99.90;;;;;;5083879;28;20024;-69
2022/02/13 04:06:16;;;;;;;14.45;5.78;;;-1.40;99.90;;;;;;5086630;28;20480;-69
2022/02/13 04:08:41;;;;;;;9.77;5.43;;;-1.40;99.90;;;;;;5088232;28;20052;-68
2022/02/13 04:11:08;;;;;;;7.00;4.82;;;-1.40;99.90;;;;;;5089381;28;20613;-68
2022/02/13 04:13:33;;;;;;;9.88;5.57;;;-1.40;99.90;;;;;;5070722;28;20047;-68
2022/02/13 04:15:59;;;;;;;10.73;5.82;;;-1.40;99.90;;;;;;5089378;28;20056;-68
2022/02/13 04:18:24;;;;;;;10.30;5.53;;;-1.40;99.90;;;;;;5088525;28;20095;-68
2022/02/13 04:20:50;;;;;;;8.43;4.75;;;-1.30;99.90;;;;;;5086010;28;20060;-69
2022/02/13 04:23:16;;;;;;;8.32;5.03;;;-1.30;99.90;;;;;;5085874;28;20024;-68
2022/02/13 04:25:42;;;;;;;11.00;5.13;;;-1.30;99.90;;;;;;5088545;28;20047;-68
2022/02/13 04:28:07;;;;;;;9.82;5.28;;;-1.30;99.90;;;;;;5087170;28;20058;-68
2022/02/13 04:30:33;;;;;;;8.90;5.68;;;-1.20;99.90;;;;;;5070503;28;20063;-68
2022/02/13 04:32:59;;;;;;;7.22;5.13;;;-1.30;99.90;;;;;;5089866;28;20020;-68
2022/02/13 04:35:25;;;;;;;8.27;5.40;;;-1.20;99.90;;;;;;5074181;28;20024;-69
2022/02/13 04:37:52;;;;;;;7.93;5.40;;;-1.20;99.90;;;;;;5091508;28;20084;-71
2022/02/13 04:40:18;;;;;;;8.05;5.28;;;-1.20;99.90;;;;;;5092132;28;20039;-69
2022/02/13 04:42:44;;;;;;;7.35;4.75;;;-1.30;99.90;;;;;;5090964;28;20142;-68
2022/02/13 04:45:10;;;;;;;9.10;5.68;;;-1.20;99.90;;;;;;5087496;28;20353;-68
2022/02/13 04:47:36;;;;;;;9.25;5.88;;;-1.30;99.90;;;;;;5090873;28;20024;-68
2022/02/13 04:50:02;;;;;;;8.80;5.57;;;-1.30;99.90;;;;;;5092084;28;20035;-69
2022/02/13 04:52:27;;;;;;;8.57;5.03;;;-1.30;99.90;;;;;;5091365;28;20032;-69
2022/02/13 04:54:53;;;;;;;9.00;5.20;;;-1.30;99.90;;;;;;5092871;28;20020;-70
2022/02/13 04:57:18;;;;;;;10.60;5.40;;;-1.30;99.90;;;;;;5090346;28;20376;-68
2022/02/13 04:59:44;;;;;;;9.88;5.85;;;-1.30;99.90;;;;;;5091758;28;20332;-68
2022/02/13 05:02:10;;;;;;;9.10;5.40;;;-1.30;99.90;;;;;;5088801;28;20024;-68
2022/02/13 05:04:36;;;;;;;9.77;5.32;;;-1.20;99.90;;;;;;5092162;28;20031;-68
2022/02/13 05:07:02;;;;;;;10.02;5.15;;;-1.30;99.90;;;;;;5091144;28;20425;-69
2022/02/13 05:09:27;;;;;;;11.57;5.53;;;-1.30;99.90;;;;;;5091928;28;20376;-70
2022/02/13 05:11:53;;;;;;;10.25;5.50;;;-1.20;99.90;;;;;;5090269;28;20090;-68
2022/02/13 05:14:18;;;;;;;8.52;5.50;;;-1.20;99.90;;;;;;5091665;28;20095;-68
2022/02/13 05:16:44;;;;;;;8.75;5.32;;;-1.20;99.90;;;;;;5091310;28;20035;-68
2022/02/13 05:19:10;;;;;;;8.93;5.25;;;-1.20;99.90;;;;;;5090757;28;20042;-70
2022/02/13 05:21:35;;;;;;;9.60;5.32;;;-1.10;99.90;;;;;;5171551;22;20059;-71
2022/02/13 05:24:01;;;;;;;9.18;5.25;;;-1.10;99.90;;;;;;5106388;28;20477;-71
2022/02/13 05:26:26;;;;;;;8.73;5.60;;;-1.10;99.90;;;;;;5111611;28;20027;-71
2022/02/13 05:28:55;;;;;;;7.05;5.05;;;-1.10;99.90;;;;;;5111114;28;20028;-71
2022/02/13 05:31:20;;;;;;;6.72;4.97;;;-1.10;99.90;;;;;;5111889;28;20027;-71
2022/02/13 05:33:46;;;;;;;9.95;5.45;;;-1.10;99.90;;;;;;5112323;28;20050;-70
2022/02/13 05:36:12;;;;;;;7.72;4.85;;;-1.10;99.90;;;;;;5112374;28;20026;-70
2022/02/13 05:38:37;;;;;;;11.65;5.43;;;-1.10;99.90;;;;;;5110741;28;20024;-70
2022/02/13 05:41:03;;;;;;;11.15;5.70;;;-1.10;99.90;;;;;;5090595;28;20625;-70
2022/02/13 05:43:28;;;;;;;11.23;6.00;;;-1.10;99.90;;;;;;5092521;28;20028;-70
2022/02/13 05:45:55;;;;;;;11.10;6.03;;;-1.10;99.90;;;;;;5078303;28;20081;-70
2022/02/13 05:48:22;;;;;;;9.05;5.50;;;-1.10;99.90;;;;;;5089513;28;20057;-70
2022/02/13 05:50:48;;;;;;;8.40;5.57;;;-1.10;99.90;;;;;;5092102;28;20094;-70
2022/02/13 05:53:14;;;;;;;12.38;6.20;;;-1.20;99.90;;;;;;5099699;28;20058;-71
2022/02/13 05:55:39;;;;;;;11.07;6.30;;;-1.20;99.90;;;;;;5098704;28;20036;-70
2022/02/13 05:58:05;;;;;;;13.25;6.45;;;-1.30;99.90;;;;;;5110351;28;20034;-70
2022/02/13 06:00:30;;;;;;;11.65;6.70;;;-1.30;99.90;;;;;;5111908;28;20031;-70
2022/02/13 06:02:56;;;;;;;11.82;6.13;;;-1.40;99.90;;;;;;5111115;28;20027;-70
2022/02/13 06:05:21;;;;;;;14.15;6.10;;;-1.40;99.90;;;;;;5111534;28;20031;-70
2022/02/13 06:07:47;;;;;;;10.23;6.10;;;-1.40;99.90;;;;;;5110381;28;20051;-70
2022/02/13 06:10:12;;;;;;;11.15;5.90;;;-1.40;99.90;;;;;;5109237;28;20117;-70
2022/02/13 06:12:38;;;;;;;11.65;6.10;;;-1.40;99.90;;;;;;5110337;28;20035;-70
2022/02/13 06:15:05;;;;;;;10.80;6.13;;;-1.40;99.90;;;;;;5111412;28;20027;-70
2022/02/13 06:17:31;;;;;;;10.13;5.60;;;-1.40;99.90;;;;;;5110228;28;20044;-70
2022/02/13 06:19:57;;;;;;;9.77;6.20;;;-1.30;99.90;;;;;;5093029;28;20073;-70
2022/02/13 06:22:22;;;;;;;11.38;6.32;;;-1.40;99.90;;;;;;5110524;27;20398;-70
2022/02/13 06:24:48;;;;;;;12.07;6.68;;;-1.30;99.90;;;;;;5089366;28;20400;-70
2022/02/13 06:27:14;;;;;;;10.75;6.15;;;-1.40;99.90;;;;;;5103484;28;20042;-70
2022/02/13 06:29:39;;;;;;;10.93;5.90;;;-1.40;99.90;;;;;;5091504;28;20083;-70
2022/02/13 06:32:05;;;;;;;11.98;5.75;;;-1.50;99.90;;;;;;5092717;28;20034;-70
2022/02/13 06:34:31;;;;;;;12.52;5.57;;;-1.50;99.90;;;;;;5091659;28;20046;-70
2022/02/13 06:36:56;;;;;;;9.80;5.47;;;-1.60;99.90;;;;;;5109346;28;20888;-70
2022/02/13 06:39:22;;;;;;;12.05;5.53;;;-1.60;99.90;;;;;;5108961;28;20055;-70
2022/02/13 06:41:48;;;;;;;10.15;5.45;;;-1.60;99.90;;;;;;5110242;28;20020;-69
2022/02/13 06:44:13;;;;;;;9.02;5.20;;;-1.60;99.90;;;;;;5110619;28;20027;-70
2022/02/13 06:46:40;;;;;;;9.52;5.28;;;-1.50;99.90;;;;;;5109734;28;20115;-70
2022/02/13 06:49:07;;;;;;;9.98;5.05;;;-1.50;99.90;;;;;;5091037;28;20118;-70
2022/02/13 06:51:33;;;;;;;7.93;4.97;;;-1.50;99.90;;;;;;5085276;28;20020;-70
2022/02/13 06:53:59;;;;;;;7.60;4.95;;;-1.50;99.90;;;;;;5107287;28;20030;-70
2022/02/13 06:56:24;;;;;;;7.30;5.25;;;-1.60;99.90;;;;;;5089887;28;20479;-70
2022/02/13 06:58:50;;;;;;;9.18;5.63;;;-1.50;99.90;;;;;;5109307;28;20467;-70
2022/02/13 07:01:15;;;;;;;7.50;5.40;;;-1.40;99.90;;;;;;5109298;28;20024;-70
2022/02/13 07:03:42;;;;;;;8.90;5.18;;;-1.40;99.90;;;;;;5110596;28;20441;-71
2022/02/13 07:06:07;;;;;;;9.02;5.20;;;-1.20;99.90;;;;;;5109121;28;20016;-70
2022/02/13 07:08:33;;;;;;;6.80;4.38;;;-1.10;99.90;;;;;;5107573;28;20038;-70
2022/02/13 07:10:59;;;;;;;8.35;5.35;;;-0.70;99.90;;;;;;5110326;28;20039;-70
2022/02/13 07:13:25;;;;;;;8.27;4.57;;;-0.40;99.90;;;;;;5109126;28;20019;-70
2022/02/13 07:15:51;;;;;;;6.82;4.20;;;-0.20;99.90;;;;;;5109873;28;20488;-70
2022/02/13 07:18:16;;;;;;;6.32;4.22;;;0.00;99.90;;;;;;5108447;28;20031;-71
2022/02/13 07:20:42;;;;;;;10.30;4.88;;;0.30;99.90;;;;;;5109409;28;20043;-70
2022/02/13 07:23:08;;;;;;;8.38;4.20;;;0.80;99.90;;;;;;5086612;28;20055;-71
2022/02/13 07:25:33;;;;;;;8.60;4.57;;;1.10;99.90;;;;;;5108256;28;20038;-70
2022/02/13 07:28:58;;;;;;;5.28;4.00;;;1.50;99.90;;;;;;5108681;28;20478;-71
2022/02/13 07:30:46;;;;;;;8.43;4.25;;;1.80;99.90;;;;;;5089514;28;20081;-71
2022/02/13 07:33:11;;;;;;;9.77;4.28;;;2.00;99.90;;;;;;5105490;28;20024;-71
2022/02/13 07:35:40;;;;;;;9.35;4.40;;;2.30;99.90;;;;;;5109996;28;20039;-70
2022/02/13 07:38:06;;;;;;;5.45;4.10;;;2.60;99.90;;;;;;5097174;28;20024;-70
2022/02/13 07:40:32;;;;;;;5.05;4.05;;;2.90;99.90;;;;;;5109578;28;20028;-70
2022/02/13 07:42:57;;;;;;;5.68;4.00;;;3.20;99.90;;;;;;5090422;28;20076;-71
2022/02/13 07:45:23;;;;;;;7.28;4.22;;;3.40;99.90;;;;;;5109954;28;20206;-70
2022/02/13 07:47:49;;;;;;;9.45;4.80;;;3.50;99.90;;;;;;5107913;28;20443;-71
2022/02/13 07:50:14;;;;;;;5.80;4.18;;;3.60;99.90;;;;;;5108940;28;20028;-71
2022/02/13 07:52:40;;;;;;;7.07;4.88;;;3.90;99.90;;;;;;5105456;28;20055;-70
2022/02/13 07:55:05;;;;;;;5.45;4.20;;;4.10;99.90;;;;;;5108082;28;20020;-70
2022/02/13 07:57:31;;;;;;;6.90;4.65;;;4.30;99.90;;;;;;5101171;28;20031;-69
2022/02/13 07:59:57;;;;;;;7.28;4.55;;;4.40;99.90;;;;;;5100733;28;20032;-69
2022/02/13 08:02:22;;;;;;;8.23;4.60;;;4.60;99.90;;;;;;5087445;28;20084;-70
2022/02/13 08:04:48;;;;;;;8.48;4.30;;;4.60;99.90;;;;;;5109201;28;20502;-69
2022/02/13 08:07:14;;;;;;;6.55;3.85;;;4.70;99.90;;;;;;5106106;28;20058;-69
2022/02/13 08:09:39;;;;;;;7.47;4.22;;;4.60;99.90;;;;;;5112946;28;20039;-69
2022/02/13 08:12:05;;;;;;;10.75;6.15;;;4.50;99.90;;;;;;5113019;28;20023;-69
2022/02/13 08:14:31;;;;;;;8.70;4.45;;;4.50;99.90;;;;;;5113225;28;20027;-69
2022/02/13 08:16:57;;;;;;;7.00;4.32;;;4.50;99.90;;;;;;5113105;28;20031;-69
2022/02/13 08:19:22;;;;;;;11.07;4.53;;;4.50;99.90;;;;;;5112758;28;20098;-69
2022/02/13 08:21:48;;;;;;;6.95;3.72;;;4.50;99.90;;;;;;5102776;27;20042;-69
2022/02/13 08:24:13;;;;;;;4.47;3.38;;;4.60;99.90;;;;;;5129391;27;20383;-69
2022/02/13 08:26:39;;;;;;;5.20;3.63;;;4.80;99.90;;;;;;5102279;28;20074;-70
2022/02/13 08:29:06;;;;;;;40.22;21.27;;;5.10;99.90;;;;;;5108411;27;20028;-68
2022/02/13 08:31:32;;;;;;;12.93;7.43;;;5.20;99.90;;;;;;5112208;28;20020;-68
2022/02/13 08:33:58;;;;;;;8.57;5.22;;;5.40;99.90;;;;;;5111251;28;20023;-68
2022/02/13 08:36:24;;;;;;;10.07;4.68;;;5.50;99.90;;;;;;5089014;28;20024;-68
2022/02/13 08:38:50;;;;;;;9.77;5.32;;;5.60;99.90;;;;;;5108187;28;20020;-68
2022/02/13 08:41:16;;;;;;;8.07;5.57;;;5.60;99.90;;;;;;5094085;28;20115;-68
2022/02/13 08:43:41;;;;;;;5.40;3.78;;;5.50;99.90;;;;;;5112751;28;20537;-68
2022/02/13 08:46:08;;;;;;;14.48;9.00;;;5.60;99.90;;;;;;5112751;28;20028;-68
2022/02/13 08:48:34;;;;;;;7.13;4.70;;;5.60;99.90;;;;;;5094030;28;20091;-67
2022/02/13 08:50:59;;;;;;;6.28;4.80;;;5.70;99.90;;;;;;5110218;28;20110;-68
2022/02/13 08:53:25;;;;;;;9.50;4.55;;;5.70;99.90;;;;;;5111496;28;20078;-67
2022/02/13 08:55:51;;;;;;;7.10;3.88;;;5.80;99.90;;;;;;5112263;28;20031;-68
2022/02/13 08:58:17;;;;;;;7.32;4.40;;;5.80;99.90;;;;;;5107737;28;20149;-68
2022/02/13 09:00:43;;;;;;;6.32;4.32;;;5.80;99.90;;;;;;5112879;28;20102;-68
2022/02/13 09:03:08;;;;;;;6.35;3.72;;;5.70;99.90;;;;;;5094305;28;20027;-68
2022/02/13 09:05:34;;;;;;;7.57;3.95;;;5.60;99.90;;;;;;5112816;28;20032;-68
2022/02/13 09:08:02;;;;;;;10.95;4.35;;;5.60;99.90;;;;;;5111785;28;20028;-68
2022/02/13 09:10:28;;;;;;;8.45;4.53;;;5.50;99.90;;;;;;5110641;28;20213;-68
2022/02/13 09:12:54;;;;;;;12.30;6.55;;;5.40;99.90;;;;;;5112438;28;20032;-68
2022/02/13 09:15:20;;;;;;;11.15;4.82;;;5.40;99.90;;;;;;5112608;28;20023;-68
2022/02/13 09:17:46;;;;;;;7.95;4.30;;;5.30;99.90;;;;;;5093215;28;20130;-68
2022/02/13 09:20:12;;;;;;;11.10;4.28;;;5.30;99.90;;;;;;5111176;28;20783;-69
2022/02/13 09:22:37;;;;;;;7.05;3.97;;;5.30;99.90;;;;;;5108481;28;20067;-68
2022/02/13 09:25:03;;;;;;;6.57;4.18;;;5.30;99.90;;;;;;5111280;28;20062;-68
2022/02/13 09:27:29;;;;;;;6.85;4.00;;;5.30;99.90;;;;;;5111144;28;20051;-68
2022/02/13 09:29:54;;;;;;;7.30;4.07;;;5.30;99.90;;;;;;5094384;28;20028;-68
2022/02/13 09:32:21;;;;;;;8.68;3.80;;;5.40;99.90;;;;;;5112863;28;20036;-68
2022/02/13 09:34:46;;;;;;;10.45;4.00;;;5.40;99.90;;;;;;5112462;28;20100;-68
2022/02/13 09:37:12;;;;;;;7.80;3.92;;;5.50;99.90;;;;;;5111752;28;20110;-68
2022/02/13 09:39:37;;;;;;;7.25;3.83;;;5.40;99.90;;;;;;5112364;28;20102;-67
2022/02/13 09:42:05;;;;;;;8.57;3.97;;;5.50;99.90;;;;;;5111797;28;20027;-67
2022/02/13 09:44:30;;;;;;;5.78;3.67;;;5.50;99.90;;;;;;5112995;28;20648;-67
2022/02/13 09:46:56;;;;;;;5.25;3.45;;;5.60;99.90;;;;;;5093982;28;20054;-67
2022/02/13 09:49:24;;;;;;;7.38;3.75;;;5.60;99.90;;;;;;5111962;28;20065;-67
2022/02/13 09:51:50;;;;;;;9.07;3.50;;;5.60;99.90;;;;;;5104346;28;20118;-67
2022/02/13 09:54:16;;;;;;;6.60;4.00;;;5.70;99.90;;;;;;5111412;28;20102;-68
2022/02/13 09:56:46;;;;;;;9.60;3.90;;;5.80;99.90;;;;;;5110341;28;20047;-68
2022/02/13 09:59:11;;;;;;;8.98;3.75;;;6.00;99.90;;;;;;5106343;28;20084;-68
2022/02/13 10:01:42;;;;;;;6.20;3.50;;;6.20;99.90;;;;;;5096361;28;20024;-67
2022/02/13 10:04:12;;;;;;;9.18;4.10;;;6.40;99.90;;;;;;5111330;28;20046;-65
2022/02/13 10:06:39;;;;;;;10.75;4.40;;;6.50;99.90;;;;;;5073248;28;20032;-65
2022/02/13 10:09:07;;;;;;;5.20;3.70;;;6.50;99.90;;;;;;5111119;28;20058;-66
2022/02/13 10:11:34;;;;;;;6.95;3.90;;;6.50;99.90;;;;;;5111828;28;20020;-66
2022/02/13 10:14:15;;;;;;;7.40;3.92;;;6.50;99.90;;;;;;5111643;28;20024;-66
2022/02/13 10:16:42;;;;;;;6.80;4.18;;;6.60;99.90;;;;;;5093625;28;20072;-66
2022/02/13 10:19:09;;;;;;;9.50;5.10;;;6.80;99.90;;;;;;5110942;28;20062;-66
2022/02/13 10:21:40;;;;;;;7.50;4.05;;;6.80;99.90;;;;;;5111322;28;20126;-66
2022/02/13 10:24:20;;;;;;;6.78;3.95;;;7.00;99.90;;;;;;5096994;28;20035;-65
2022/02/13 10:26:53;;;;;;;7.68;5.13;;;7.20;99.90;;;;;;5098588;28;20495;-66
2022/02/13 10:29:22;;;;;;;6.55;3.58;;;7.20;99.90;;;;;;5110870;28;20024;-66
2022/02/13 10:31:48;;;;;;;7.80;3.95;;;7.30;99.90;;;;;;5108496;28;20031;-65
2022/02/13 10:34:14;;;;;;;5.60;3.65;;;7.30;99.90;;;;;;5110569;28;20015;-67
2022/02/13 10:36:45;;;;;;;11.60;4.95;;;7.30;99.90;;;;;;5110735;28;20028;-65
2022/02/13 10:39:22;;;;;;;6.97;3.83;;;7.30;99.90;;;;;;5109321;27;20027;-67
2022/02/13 10:41:48;;;;;;;9.10;3.90;;;7.20;99.90;;;;;;5110643;28;20143;-66
2022/02/13 10:44:14;;;;;;;10.95;4.15;;;7.30;99.90;;;;;;5105555;28;20032;-67
2022/02/13 10:46:42;;;;;;;6.25;3.95;;;7.30;99.90;;;;;;5075131;28;20124;-67
2022/02/13 10:49:09;;;;;;;8.18;4.20;;;7.30;99.90;;;;;;5109943;28;20515;-66
2022/02/13 10:51:35;;;;;;;11.45;3.92;;;7.30;99.90;;;;;;5110540;28;20142;-66
2022/02/13 10:54:04;;;;;;;8.20;3.65;;;7.40;99.90;;;;;;5085773;28;20103;-66
2022/02/13 10:56:30;;;;;;;9.57;4.13;;;7.50;99.90;;;;;;5108010;28;20039;-66
2022/02/13 10:58:56;;;;;;;5.55;3.95;;;7.50;99.90;;;;;;5103620;27;20055;-66
2022/02/13 11:01:24;;;;;;;10.82;4.65;;;7.60;99.90;;;;;;5092994;28;20019;-66
2022/02/13 11:03:52;;;;;;;11.13;5.45;;;7.70;99.90;;;;;;5110916;28;20016;-66
2022/02/13 11:06:19;;;;;;;7.78;4.78;;;7.70;99.90;;;;;;5109512;28;20023;-66
2022/02/13 11:08:55;;;;;;;6.70;4.00;;;7.80;99.90;;;;;;5087131;28;20024;-66
2022/02/13 11:11:21;;;;;;;10.68;4.20;;;7.90;99.90;;;;;;5104456;28;20140;-66
2022/02/13 11:13:48;;;;;;;9.15;4.38;;;7.90;99.90;;;;;;5110087;28;20023;-65
2022/02/13 11:16:34;;;;;;;9.40;4.13;;;8.10;99.90;;;;;;5110368;28;20032;-66
2022/02/13 11:19:07;;;;;;;9.15;4.28;;;8.20;99.90;;;;;;5108239;28;20061;-65
2022/02/13 11:21:34;;;;;;;6.78;4.15;;;8.30;99.90;;;;;;5119780;22;20047;-68
2022/02/13 11:24:02;;;;;;;11.98;4.90;;;8.40;99.90;;;;;;5101262;28;20103;-68
2022/02/13 11:26:44;;;;;;;7.13;4.03;;;8.50;99.90;;;;;;5100324;28;20016;-69
2022/02/13 11:29:11;;;;;;;9.73;4.30;;;8.60;99.90;;;;;;5104641;28;20398;-68
2022/02/13 11:31:50;;;;;;;9.75;4.55;;;8.70;99.90;;;;;;5089623;28;20285;-69
2022/02/13 11:34:24;;;;;;;8.60;4.30;;;8.80;99.90;;;;;;5109332;28;20034;-69
2022/02/13 11:37:08;;;;;;;5.30;3.75;;;8.90;99.90;;;;;;5108672;28;20027;-69
2022/02/13 11:39:41;;;;;;;10.57;4.03;;;9.00;99.90;;;;;;5091381;28;20051;-69
2022/02/13 11:42:19;;;;;;;7.40;3.80;;;9.10;99.90;;;;;;5105221;28;20036;-69
2022/02/13 11:44:50;;;;;;;5.55;3.00;;;9.20;99.90;;;;;;5110234;28;20027;-69
2022/02/13 11:47:19;;;;;;;7.32;3.60;;;9.30;99.90;;;;;;5108428;28;20027;-71
2022/02/13 11:50:07;;;;;;;9.50;4.13;;;9.40;99.90;;;;;;5109932;28;20111;-70
2022/02/13 11:52:52;;;;;;;8.13;3.67;;;9.60;99.90;;;;;;5109648;28;20020;-69
2022/02/13 11:55:19;;;;;;;7.47;4.07;;;9.80;99.90;;;;;;5107715;28;20064;-70
2022/02/13 11:58:14;;;;;;;9.65;3.58;;;10.00;99.90;;;;;;5108547;28;20475;-69
2022/02/13 12:00:41;;;;;;;11.98;4.55;;;10.20;99.90;;;;;;5089008;28;20026;-69
2022/02/13 12:03:21;;;;;;;13.60;3.95;;;10.40;99.90;;;;;;5107563;28;20020;-69
2022/02/13 12:06:10;;;;;;;15.45;4.35;;;10.60;99.90;;;;;;5106842;28;20026;-69
2022/02/13 12:08:36;;;;;;;16.80;4.70;;;10.80;99.70;;;;;;5088746;28;20075;-69
2022/02/13 12:11:06;;;;;;;13.75;4.32;;;11.00;99.50;;;;;;5109369;28;20063;-70
2022/02/13 12:13:35;;;;;;;23.92;9.27;;;11.20;98.90;;;;;;5110133;28;20030;-71
2022/02/13 12:16:02;;;;;;;6.80;3.63;;;11.50;98.70;;;;;;5108960;28;20023;-69
2022/02/13 12:18:28;;;;;;;14.70;4.22;;;11.60;98.00;;;;;;5106915;28;20023;-71
2022/02/13 12:21:05;;;;;;;14.57;4.28;;;11.80;97.40;;;;;;5106343;28;20016;-70
2022/02/13 12:23:31;;;;;;;8.90;3.88;;;11.80;96.90;;;;;;5109742;28;20068;-70
2022/02/13 12:25:57;;;;;;;12.70;3.72;;;12.00;97.00;;;;;;5108449;28;20034;-70
2022/02/13 12:28:29;;;;;;;11.90;3.78;;;12.20;96.50;;;;;;5101859;28;20469;-70
2022/02/13 12:30:56;;;;;;;10.45;3.95;;;12.40;95.90;;;;;;5106494;28;20080;-70
2022/02/13 12:33:26;;;;;;;6.75;3.40;;;12.50;95.80;;;;;;5109953;28;20026;-69
2022/02/13 12:35:53;;;;;;;9.38;3.15;;;12.70;95.00;;;;;;5110051;28;20035;-69
2022/02/13 12:38:18;;;;;;;11.88;3.03;;;12.80;94.80;;;;;;5091486;28;20475;-70
2022/02/13 12:40:45;;;;;;;5.93;3.38;;;12.90;94.40;;;;;;5109333;28;20057;-69
2022/02/13 12:43:14;;;;;;;7.85;3.38;;;13.10;94.10;;;;;;5110530;28;20585;-70